createdAt,value
2018-05-27T00:00:40.908Z,24
2018-05-27T00:01:31.324Z,24
2018-05-27T00:02:21.951Z,23.9
2018-05-27T00:03:11.235Z,24
2018-05-27T00:04:02.042Z,23.9
2018-05-27T00:04:51.289Z,23.9
2018-05-27T00:05:41.931Z,23.9
2018-05-27T00:06:31.929Z,23.9
2018-05-27T00:07:21.489Z,23.9
2018-05-27T00:08:12.064Z,23.9
2018-05-27T00:09:02.436Z,23.9
2018-05-27T00:09:52.492Z,23.9
2018-05-27T00:10:42.109Z,23.9
2018-05-27T00:11:32.345Z,23.9
2018-05-27T00:12:22.615Z,23.9
2018-05-27T00:13:12.496Z,23.9
2018-05-27T00:14:02.902Z,23.9
2018-05-27T00:14:52.280Z,23.9
2018-05-27T00:15:42.914Z,23.9
2018-05-27T00:16:33.015Z,23.9
2018-05-27T00:17:22.764Z,23.9
2018-05-27T00:18:13.086Z,23.9
2018-05-27T00:19:03.157Z,23.9
2018-05-27T00:19:52.678Z,23.9
2018-05-27T00:20:42.979Z,23.9
2018-05-27T00:21:32.851Z,23.9
2018-05-27T00:22:23.429Z,23.9
2018-05-27T00:23:13.511Z,23.9
2018-05-27T00:24:03.547Z,23.9
2018-05-27T00:24:53.188Z,23.9
2018-05-27T00:25:42.650Z,23.9
2018-05-27T00:26:32.962Z,23.9
2018-05-27T00:27:23.241Z,23.9
2018-05-27T00:28:13.858Z,23.9
2018-05-27T00:29:03.422Z,23.9
2018-05-27T00:29:54.024Z,23.9
2018-05-27T00:30:43.521Z,23.9
2018-05-27T00:31:34.117Z,23.9
2018-05-27T00:32:24.204Z,23.9
2018-05-27T00:33:13.453Z,23.9
2018-05-27T00:34:04.086Z,23.9
2018-05-27T00:34:54.122Z,23.9
2018-05-27T00:35:43.678Z,23.9
2018-05-27T00:36:34.555Z,23.9
2018-05-27T00:37:24.031Z,23.9
2018-05-27T00:38:14.378Z,23.9
2018-05-27T00:39:03.919Z,23.9
2018-05-27T00:39:54.500Z,23.9
2018-05-27T00:40:44.560Z,23.9
2018-05-27T00:41:34.621Z,23.9
2018-05-27T00:42:24.434Z,23.9
2018-05-27T00:43:14.752Z,23.9
2018-05-27T00:44:04.949Z,23.9
2018-05-27T00:44:55.218Z,23.9
2018-05-27T00:45:44.951Z,23.9
2018-05-27T00:46:35.014Z,23.9
2018-05-27T00:47:24.220Z,23.9
2018-05-27T00:48:15.440Z,23.9
2018-05-27T00:49:05.509Z,23.9
2018-05-27T00:49:56.160Z,23.9
2018-05-27T00:50:45.390Z,23.9
2018-05-27T00:51:35.732Z,23.9
2018-05-27T00:52:25.782Z,23.9
2018-05-27T00:53:15.520Z,23.9
2018-05-27T00:54:05.614Z,23.9
2018-05-27T00:54:55.965Z,23.9
2018-05-27T00:55:44.859Z,23.9
2018-05-27T00:56:36.061Z,23.9
2018-05-27T00:57:25.584Z,23.9
2018-05-27T00:58:16.193Z,23.9
2018-05-27T00:59:05.699Z,23.9
2018-05-27T00:59:54.708Z,23.9
2018-05-27T01:00:46.109Z,23.9
2018-05-27T01:01:35.619Z,23.9
2018-05-27T01:02:25.714Z,23.9
2018-05-27T01:03:16.597Z,23.9
2018-05-27T01:04:06.351Z,23.9
2018-05-27T01:04:55.684Z,23.9
2018-05-27T01:05:46.529Z,23.9
2018-05-27T01:06:36.312Z,23.9
2018-05-27T01:07:26.594Z,23.9
2018-05-27T01:08:17.024Z,23.9
2018-05-27T01:09:07.053Z,23.9
2018-05-27T01:09:57.104Z,23.9
2018-05-27T01:10:46.896Z,23.9
2018-05-27T01:11:37.230Z,23.9
2018-05-27T01:12:27.509Z,23.9
2018-05-27T01:13:16.796Z,23.9
2018-05-27T01:14:06.850Z,23.9
2018-05-27T01:14:57.521Z,23.9
2018-05-27T01:15:47.058Z,23.8
2018-05-27T01:16:37.635Z,23.9
2018-05-27T01:17:27.124Z,23.9
2018-05-27T01:18:16.963Z,23.8
2018-05-27T01:19:07.259Z,23.8
2018-05-27T01:19:57.598Z,23.9
2018-05-27T01:20:47.948Z,23.9
2018-05-27T01:21:37.691Z,23.8
2018-05-27T01:22:27.766Z,23.9
2018-05-27T01:23:16.996Z,23.8
2018-05-27T01:24:07.923Z,23.8
2018-05-27T01:24:57.413Z,23.8
2018-05-27T01:25:48.042Z,23.8
2018-05-27T01:26:38.073Z,23.8
2018-05-27T01:27:27.876Z,23.8
2018-05-27T01:28:18.509Z,23.8
2018-05-27T01:29:08.571Z,23.8
2018-05-27T01:29:58.641Z,23.8
2018-05-27T01:30:48.141Z,23.8
2018-05-27T01:31:38.503Z,23.8
2018-05-27T01:32:28.538Z,23.8
2018-05-27T01:33:18.625Z,23.8
2018-05-27T01:34:08.746Z,23.8
2018-05-27T01:34:58.463Z,23.8
2018-05-27T01:35:49.099Z,23.8
2018-05-27T01:36:38.860Z,23.8
2018-05-27T01:37:27.528Z,23.8
2018-05-27T01:38:18.699Z,23.8
2018-05-27T01:39:09.095Z,23.8
2018-05-27T01:39:58.858Z,23.8
2018-05-27T01:40:49.452Z,23.8
2018-05-27T01:41:39.543Z,23.8
2018-05-27T01:42:29.651Z,23.8
2018-05-27T01:43:19.114Z,23.8
2018-05-27T01:44:09.463Z,23.8
2018-05-27T01:44:59.793Z,23.8
2018-05-27T01:45:49.850Z,23.8
2018-05-27T01:46:39.927Z,23.8
2018-05-27T01:47:29.725Z,23.8
2018-05-27T01:48:19.507Z,23.8
2018-05-27T01:49:09.817Z,23.8
2018-05-27T01:50:00.207Z,23.8
2018-05-27T01:50:50.242Z,23.8
2018-05-27T01:51:40.310Z,23.8
2018-05-27T01:52:30.059Z,23.8
2018-05-27T01:53:20.398Z,23.8
2018-05-27T01:54:09.925Z,23.8
2018-05-27T01:54:59.695Z,23.8
2018-05-27T01:55:50.102Z,23.8
2018-05-27T01:56:40.168Z,23.8
2018-05-27T01:57:30.507Z,23.8
2018-05-27T01:58:20.838Z,23.8
2018-05-27T01:59:10.860Z,23.8
2018-05-27T02:00:00.668Z,23.7
2018-05-27T02:00:51.010Z,23.7
2018-05-27T02:01:40.508Z,23.7
2018-05-27T02:02:30.881Z,23.7
2018-05-27T02:03:21.245Z,23.7
2018-05-27T02:04:11.002Z,23.7
2018-05-27T02:05:00.480Z,23.7
2018-05-27T02:05:50.580Z,23.7
2018-05-27T02:06:41.278Z,23.7
2018-05-27T02:07:30.651Z,23.7
2018-05-27T02:08:21.037Z,23.7
2018-05-27T02:09:11.119Z,23.7
2018-05-27T02:10:01.140Z,23.7
2018-05-27T02:10:51.485Z,23.7
2018-05-27T02:11:41.579Z,23.7
2018-05-27T02:12:31.350Z,23.7
2018-05-27T02:13:21.143Z,23.7
2018-05-27T02:14:11.463Z,23.7
2018-05-27T02:15:01.819Z,23.7
2018-05-27T02:15:51.603Z,23.7
2018-05-27T02:16:41.971Z,23.7
2018-05-27T02:17:31.743Z,23.7
2018-05-27T02:18:22.111Z,23.7
2018-05-27T02:19:11.310Z,23.7
2018-05-27T02:20:01.927Z,23.7
2018-05-27T02:20:52.570Z,23.7
2018-05-27T02:21:41.793Z,23.7
2018-05-27T02:22:32.433Z,23.7
2018-05-27T02:23:22.482Z,23.6
2018-05-27T02:24:11.960Z,23.6
2018-05-27T02:25:02.352Z,23.6
2018-05-27T02:25:52.390Z,23.6
2018-05-27T02:26:42.450Z,23.6
2018-05-27T02:27:33.067Z,23.6
2018-05-27T02:28:23.162Z,23.6
2018-05-27T02:29:12.707Z,23.6
2018-05-27T02:30:03.003Z,23.6
2018-05-27T02:30:52.224Z,23.6
2018-05-27T02:31:43.436Z,23.6
2018-05-27T02:32:32.917Z,23.6
2018-05-27T02:33:22.972Z,23.6
2018-05-27T02:34:13.638Z,23.6
2018-05-27T02:35:03.413Z,23.6
2018-05-27T02:35:53.878Z,23.6
2018-05-27T02:36:43.296Z,23.6
2018-05-27T02:37:33.841Z,23.6
2018-05-27T02:38:23.633Z,23.6
2018-05-27T02:39:13.413Z,23.6
2018-05-27T02:40:04.087Z,23.6
2018-05-27T02:40:53.845Z,23.6
2018-05-27T02:41:44.316Z,23.6
2018-05-27T02:42:34.234Z,23.6
2018-05-27T02:43:23.764Z,23.6
2018-05-27T02:44:14.096Z,23.6
2018-05-27T02:45:03.610Z,23.6
2018-05-27T02:45:54.231Z,23.6
2018-05-27T02:46:44.138Z,23.6
2018-05-27T02:47:34.504Z,23.6
2018-05-27T02:48:24.264Z,23.6
2018-05-27T02:49:14.471Z,23.6
2018-05-27T02:50:04.871Z,23.6
2018-05-27T02:50:54.363Z,23.6
2018-05-27T02:51:44.668Z,23.6
2018-05-27T02:52:34.689Z,23.6
2018-05-27T02:53:24.797Z,23.5
2018-05-27T02:54:15.117Z,23.6
2018-05-27T02:55:04.970Z,23.6
2018-05-27T02:55:54.703Z,23.5
2018-05-27T02:56:45.341Z,23.6
2018-05-27T02:57:35.392Z,23.5
2018-05-27T02:58:25.202Z,23.5
2018-05-27T02:59:15.505Z,23.5
2018-05-27T03:00:04.740Z,23.6
2018-05-27T03:00:54.597Z,23.5
2018-05-27T03:01:45.418Z,23.5
2018-05-27T03:02:35.518Z,23.5
2018-05-27T03:03:25.859Z,23.5
2018-05-27T03:04:15.327Z,23.5
2018-05-27T03:05:06.004Z,23.5
2018-05-27T03:05:55.776Z,23.5
2018-05-27T03:06:46.131Z,23.5
2018-05-27T03:07:36.364Z,23.5
2018-05-27T03:08:25.662Z,23.5
2018-05-27T03:09:15.846Z,23.5
2018-05-27T03:10:06.399Z,23.5
2018-05-27T03:10:56.414Z,23.4
2018-05-27T03:11:45.904Z,23.5
2018-05-27T03:12:35.963Z,23.5
2018-05-27T03:13:26.085Z,23.4
2018-05-27T03:14:16.689Z,23.5
2018-05-27T03:15:06.480Z,23.5
2018-05-27T03:15:56.812Z,23.4
2018-05-27T03:16:46.638Z,23.4
2018-05-27T03:17:36.633Z,23.4
2018-05-27T03:18:26.694Z,23.4
2018-05-27T03:19:16.776Z,23.4
2018-05-27T03:20:06.871Z,23.4
2018-05-27T03:20:56.873Z,23.4
2018-05-27T03:21:47.261Z,23.4
2018-05-27T03:22:36.754Z,23.4
2018-05-27T03:23:26.559Z,23.4
2018-05-27T03:24:16.876Z,23.4
2018-05-27T03:25:22.176Z,23.4
2018-05-27T03:25:56.724Z,23.4
2018-05-27T03:26:47.361Z,23.4
2018-05-27T03:27:37.699Z,23.4
2018-05-27T03:28:27.516Z,23.4
2018-05-27T03:29:17.261Z,23.4
2018-05-27T03:30:07.424Z,23.4
2018-05-27T03:30:57.783Z,23.4
2018-05-27T03:31:47.205Z,23.4
2018-05-27T03:32:38.085Z,23.4
2018-05-27T03:33:27.566Z,23.4
2018-05-27T03:34:17.631Z,23.4
2018-05-27T03:35:08.263Z,23.4
2018-05-27T03:35:57.268Z,23.4
2018-05-27T03:36:48.914Z,23.4
2018-05-27T03:37:38.230Z,23.4
2018-05-27T03:38:28.245Z,23.4
2018-05-27T03:39:18.566Z,23.4
2018-05-27T03:40:08.358Z,23.4
2018-05-27T03:40:57.901Z,23.4
2018-05-27T03:41:48.224Z,23.4
2018-05-27T03:42:38.266Z,23.4
2018-05-27T03:43:28.070Z,23.4
2018-05-27T03:44:18.440Z,23.4
2018-05-27T03:45:08.818Z,23.4
2018-05-27T03:45:59.080Z,23.4
2018-05-27T03:46:48.332Z,23.4
2018-05-27T03:47:39.263Z,23.3
2018-05-27T03:48:29.049Z,23.4
2018-05-27T03:49:18.807Z,23.4
2018-05-27T03:50:09.445Z,23.4
2018-05-27T03:50:59.211Z,23.3
2018-05-27T03:51:49.284Z,23.4
2018-05-27T03:52:38.790Z,23.3
2018-05-27T03:53:29.129Z,23.3
2018-05-27T03:54:19.175Z,23.4
2018-05-27T03:55:09.550Z,23.3
2018-05-27T03:55:59.850Z,23.4
2018-05-27T03:56:49.687Z,23.3
2018-05-27T03:57:39.420Z,23.3
2018-05-27T03:58:29.800Z,23.3
2018-05-27T03:59:19.895Z,23.3
2018-05-27T04:00:09.613Z,23.3
2018-05-27T04:01:00.263Z,23.3
2018-05-27T04:01:50.327Z,23.4
2018-05-27T04:02:39.257Z,23.3
2018-05-27T04:03:30.455Z,23.4
2018-05-27T04:04:19.684Z,23.3
2018-05-27T04:05:09.741Z,23.3
2018-05-27T04:05:59.841Z,23.3
2018-05-27T04:06:50.735Z,23.3
2018-05-27T04:07:40.264Z,23.3
2018-05-27T04:08:30.820Z,23.3
2018-05-27T04:09:20.671Z,23.3
2018-05-27T04:10:10.434Z,23.3
2018-05-27T04:11:00.751Z,23.3
2018-05-27T04:11:51.091Z,23.3
2018-05-27T04:12:41.177Z,23.3
2018-05-27T04:13:31.243Z,23.3
2018-05-27T04:14:21.009Z,23.3
2018-05-27T04:15:10.795Z,23.3
2018-05-27T04:16:01.166Z,23.3
2018-05-27T04:16:51.211Z,23.3
2018-05-27T04:17:40.973Z,23.3
2018-05-27T04:18:30.796Z,23.3
2018-05-27T04:19:21.152Z,23.3
2018-05-27T04:20:11.744Z,23.3
2018-05-27T04:21:01.814Z,23.3
2018-05-27T04:21:51.597Z,23.3
2018-05-27T04:22:41.390Z,23.3
2018-05-27T04:23:32.053Z,23.3
2018-05-27T04:24:22.056Z,23.3
2018-05-27T04:25:11.291Z,23.3
2018-05-27T04:26:01.915Z,23.3
2018-05-27T04:26:52.263Z,23.3
2018-05-27T04:27:42.307Z,23.3
2018-05-27T04:28:32.292Z,23.3
2018-05-27T04:29:22.496Z,23.3
2018-05-27T04:30:12.574Z,23.3
2018-05-27T04:31:02.314Z,23.3
2018-05-27T04:31:52.662Z,23.3
2018-05-27T04:32:42.692Z,23.3
2018-05-27T04:33:32.790Z,23.3
2018-05-27T04:34:22.575Z,23.3
2018-05-27T04:35:12.602Z,23.3
2018-05-27T04:36:02.662Z,23.3
2018-05-27T04:36:52.748Z,23.3
2018-05-27T04:37:43.074Z,23.3
2018-05-27T04:38:32.605Z,23.3
2018-05-27T04:39:23.217Z,23.3
2018-05-27T04:40:13.037Z,23.3
2018-05-27T04:41:02.521Z,23.3
2018-05-27T04:41:53.140Z,23.3
2018-05-27T04:42:43.504Z,23.3
2018-05-27T04:43:32.959Z,23.3
2018-05-27T04:44:23.044Z,23.3
2018-05-27T04:45:13.693Z,23.3
2018-05-27T04:46:03.470Z,23.3
2018-05-27T04:46:53.829Z,23.3
2018-05-27T04:47:43.584Z,23.3
2018-05-27T04:48:33.693Z,23.3
2018-05-27T04:49:23.725Z,23.3
2018-05-27T04:50:14.078Z,23.3
2018-05-27T04:51:03.835Z,23.3
2018-05-27T04:51:53.924Z,23.3
2018-05-27T04:52:43.706Z,23.3
2018-05-27T04:53:34.366Z,23.3
2018-05-27T04:54:24.422Z,23.3
2018-05-27T04:55:13.918Z,23.3
2018-05-27T04:56:03.955Z,23.3
2018-05-27T04:56:54.309Z,23.3
2018-05-27T04:57:44.346Z,23.3
2018-05-27T04:58:34.411Z,23.3
2018-05-27T04:59:24.221Z,23.3
2018-05-27T05:00:14.574Z,23.3
2018-05-27T05:01:04.319Z,23.3
2018-05-27T05:01:54.395Z,23.3
2018-05-27T05:02:44.741Z,23.3
2018-05-27T05:03:35.081Z,23.3
2018-05-27T05:04:24.848Z,23.3
2018-05-27T05:05:15.203Z,23.3
2018-05-27T05:06:04.699Z,23.3
2018-05-27T05:06:55.067Z,23.3
2018-05-27T05:07:44.859Z,23.3
2018-05-27T05:08:35.463Z,23.3
2018-05-27T05:09:25.196Z,23.3
2018-05-27T05:10:15.309Z,23.3
2018-05-27T05:11:05.397Z,23.3
2018-05-27T05:11:55.536Z,23.3
2018-05-27T05:12:45.831Z,23.3
2018-05-27T05:13:35.309Z,23.3
2018-05-27T05:14:25.931Z,23.3
2018-05-27T05:15:15.989Z,23.3
2018-05-27T05:16:04.935Z,23.3
2018-05-27T05:16:55.818Z,23.3
2018-05-27T05:17:46.194Z,23.3
2018-05-27T05:18:35.961Z,23.3
2018-05-27T05:19:25.779Z,23.3
2018-05-27T05:20:15.838Z,23.3
2018-05-27T05:21:05.962Z,23.3
2018-05-27T05:21:55.610Z,23.3
2018-05-27T05:22:45.232Z,23.3
2018-05-27T05:23:35.913Z,23.3
2018-05-27T05:24:26.844Z,23.3
2018-05-27T05:25:16.466Z,23.3
2018-05-27T05:26:06.812Z,23.3
2018-05-27T05:26:56.609Z,23.3
2018-05-27T05:27:46.836Z,23.3
2018-05-27T05:28:36.179Z,23.3
2018-05-27T05:29:26.530Z,23.3
2018-05-27T05:30:17.127Z,23.3
2018-05-27T05:31:06.914Z,23.3
2018-05-27T05:31:57.256Z,23.3
2018-05-27T05:32:46.786Z,23.3
2018-05-27T05:33:36.273Z,23.3
2018-05-27T05:34:27.217Z,23.3
2018-05-27T05:35:16.995Z,23.3
2018-05-27T05:36:07.034Z,23.3
2018-05-27T05:36:57.113Z,23.3
2018-05-27T05:37:47.493Z,23.3
2018-05-27T05:38:37.495Z,23.3
2018-05-27T05:39:27.859Z,23.3
2018-05-27T05:40:17.360Z,23.3
2018-05-27T05:41:07.731Z,23.3
2018-05-27T05:41:57.760Z,23.3
2018-05-27T05:42:47.864Z,23.3
2018-05-27T05:43:37.690Z,23.3
2018-05-27T05:44:27.646Z,23.4
2018-05-27T05:45:17.807Z,23.3
2018-05-27T05:46:08.085Z,23.3
2018-05-27T05:46:58.147Z,23.3
2018-05-27T05:47:48.478Z,23.3
2018-05-27T05:48:38.605Z,23.4
2018-05-27T05:49:28.190Z,23.4
2018-05-27T05:50:18.702Z,23.4
2018-05-27T05:51:08.782Z,23.4
2018-05-27T05:51:58.863Z,23.4
2018-05-27T05:52:48.875Z,23.4
2018-05-27T05:53:38.973Z,23.4
2018-05-27T05:54:28.505Z,23.4
2018-05-27T05:55:19.081Z,23.4
2018-05-27T05:56:08.567Z,23.4
2018-05-27T05:56:58.913Z,23.4
2018-05-27T05:57:48.157Z,23.4
2018-05-27T05:58:38.755Z,23.4
2018-05-27T05:59:29.145Z,23.4
2018-05-27T06:00:19.465Z,23.4
2018-05-27T06:01:09.506Z,23.4
2018-05-27T06:01:59.299Z,23.4
2018-05-27T06:02:49.420Z,23.4
2018-05-27T06:03:39.168Z,23.4
2018-05-27T06:04:29.789Z,23.4
2018-05-27T06:05:19.329Z,23.4
2018-05-27T06:06:09.068Z,23.4
2018-05-27T06:06:59.708Z,23.4
2018-05-27T06:07:49.297Z,23.4
2018-05-27T06:08:39.684Z,23.5
2018-05-27T06:09:30.295Z,23.4
2018-05-27T06:10:19.761Z,23.5
2018-05-27T06:11:09.866Z,23.5
2018-05-27T06:11:59.627Z,23.5
2018-05-27T06:12:49.082Z,23.5
2018-05-27T06:13:40.439Z,23.5
2018-05-27T06:14:30.014Z,23.5
2018-05-27T06:15:19.906Z,23.5
2018-05-27T06:16:10.236Z,23.5
2018-05-27T06:16:59.716Z,23.5
2018-05-27T06:17:50.345Z,23.5
2018-05-27T06:18:39.645Z,23.5
2018-05-27T06:19:30.563Z,23.5
2018-05-27T06:20:20.478Z,23.5
2018-05-27T06:21:09.968Z,23.6
2018-05-27T06:21:59.811Z,23.5
2018-05-27T06:22:51.231Z,23.5
2018-05-27T06:23:40.981Z,23.5
2018-05-27T06:24:31.086Z,23.5
2018-05-27T06:25:21.136Z,23.5
2018-05-27T06:26:10.646Z,23.6
2018-05-27T06:27:00.981Z,23.5
2018-05-27T06:27:51.105Z,23.6
2018-05-27T06:28:41.398Z,23.6
2018-05-27T06:29:31.717Z,23.6
2018-05-27T06:30:21.550Z,23.6
2018-05-27T06:31:11.838Z,23.6
2018-05-27T06:32:02.235Z,23.6
2018-05-27T06:32:51.728Z,23.6
2018-05-27T06:33:42.091Z,23.6
2018-05-27T06:34:31.865Z,23.6
2018-05-27T06:35:21.656Z,23.6
2018-05-27T06:36:11.698Z,23.6
2018-05-27T06:37:02.058Z,23.6
2018-05-27T06:37:52.098Z,23.6
2018-05-27T06:38:41.424Z,23.6
2018-05-27T06:39:32.244Z,23.6
2018-05-27T06:40:21.761Z,23.6
2018-05-27T06:41:12.355Z,23.6
2018-05-27T06:42:01.911Z,23.6
2018-05-27T06:42:52.501Z,23.6
2018-05-27T06:43:42.893Z,23.6
2018-05-27T06:44:32.950Z,23.6
2018-05-27T06:45:21.860Z,23.6
2018-05-27T06:46:12.189Z,23.6
2018-05-27T06:47:03.101Z,23.6
2018-05-27T06:47:52.035Z,23.6
2018-05-27T06:48:43.235Z,23.6
2018-05-27T06:49:32.763Z,23.6
2018-05-27T06:50:23.369Z,23.6
2018-05-27T06:51:13.405Z,23.6
2018-05-27T06:52:03.495Z,23.6
2018-05-27T06:52:53.540Z,23.6
2018-05-27T06:53:43.653Z,23.6
2018-05-27T06:54:33.658Z,23.6
2018-05-27T06:55:23.477Z,23.6
2018-05-27T06:56:13.801Z,23.6
2018-05-27T06:57:03.578Z,23.6
2018-05-27T06:57:54.001Z,23.6
2018-05-27T06:58:44.003Z,23.6
2018-05-27T06:59:34.060Z,23.6
2018-05-27T07:00:24.149Z,23.6
2018-05-27T07:01:13.396Z,23.6
2018-05-27T07:02:04.001Z,23.6
2018-05-27T07:02:54.058Z,23.6
2018-05-27T07:03:44.122Z,23.6
2018-05-27T07:04:35.305Z,23.6
2018-05-27T07:05:24.249Z,23.6
2018-05-27T07:06:14.588Z,23.6
2018-05-27T07:07:04.376Z,23.6
2018-05-27T07:07:54.430Z,23.6
2018-05-27T07:08:44.536Z,23.6
2018-05-27T07:09:34.582Z,23.6
2018-05-27T07:10:24.624Z,23.6
2018-05-27T07:11:14.999Z,23.6
2018-05-27T07:12:04.814Z,23.6
2018-05-27T07:12:54.807Z,23.6
2018-05-27T07:13:44.397Z,23.6
2018-05-27T07:14:35.279Z,23.6
2018-05-27T07:15:25.359Z,23.6
2018-05-27T07:16:15.345Z,23.6
2018-05-27T07:17:05.453Z,23.6
2018-05-27T07:17:55.251Z,23.6
2018-05-27T07:18:45.037Z,23.6
2018-05-27T07:19:35.389Z,23.6
2018-05-27T07:20:24.910Z,23.6
2018-05-27T07:21:15.553Z,23.6
2018-05-27T07:22:05.295Z,23.6
2018-05-27T07:22:55.987Z,23.6
2018-05-27T07:23:45.983Z,23.6
2018-05-27T07:24:36.054Z,23.6
2018-05-27T07:25:25.287Z,23.6
2018-05-27T07:26:15.574Z,23.7
2018-05-27T07:27:07.625Z,23.6
2018-05-27T07:27:58.255Z,23.6
2018-05-27T07:28:48.389Z,23.6
2018-05-27T07:29:37.812Z,23.7
2018-05-27T07:30:28.458Z,23.6
2018-05-27T07:31:18.297Z,23.7
2018-05-27T07:32:08.347Z,23.6
2018-05-27T07:32:58.661Z,23.7
2018-05-27T07:33:47.837Z,23.7
2018-05-27T07:34:38.893Z,23.7
2018-05-27T07:35:28.841Z,23.7
2018-05-27T07:36:16.086Z,23.7
2018-05-27T07:37:06.778Z,23.7
2018-05-27T07:37:56.801Z,23.7
2018-05-27T07:38:47.157Z,23.7
2018-05-27T07:39:36.670Z,23.7
2018-05-27T07:40:27.298Z,23.7
2018-05-27T07:41:17.079Z,23.7
2018-05-27T07:42:06.599Z,23.7
2018-05-27T07:42:57.182Z,23.7
2018-05-27T07:43:46.693Z,23.7
2018-05-27T07:44:37.629Z,23.7
2018-05-27T07:45:27.125Z,23.7
2018-05-27T07:46:17.503Z,23.7
2018-05-27T07:47:07.258Z,23.7
2018-05-27T07:47:57.895Z,23.8
2018-05-27T07:48:47.370Z,23.7
2018-05-27T07:49:37.738Z,23.7
2018-05-27T07:50:27.834Z,23.8
2018-05-27T07:51:17.594Z,23.8
2018-05-27T07:52:07.938Z,23.8
2018-05-27T07:52:58.269Z,23.8
2018-05-27T07:53:47.760Z,23.8
2018-05-27T07:54:38.094Z,23.8
2018-05-27T07:55:27.700Z,23.8
2018-05-27T07:56:17.947Z,23.8
2018-05-27T07:57:08.106Z,23.8
2018-05-27T07:57:58.161Z,23.8
2018-05-27T07:58:48.188Z,23.8
2018-05-27T07:59:38.772Z,23.8
2018-05-27T08:00:28.605Z,23.8
2018-05-27T08:01:18.405Z,23.8
2018-05-27T08:02:08.726Z,23.8
2018-05-27T08:02:58.457Z,23.8
2018-05-27T08:03:49.133Z,23.8
2018-05-27T08:04:38.922Z,23.8
2018-05-27T08:05:28.974Z,23.8
2018-05-27T08:06:19.013Z,23.8
2018-05-27T08:07:09.501Z,23.8
2018-05-27T08:07:59.155Z,23.8
2018-05-27T08:08:49.531Z,23.8
2018-05-27T08:09:38.990Z,23.8
2018-05-27T08:10:29.372Z,23.8
2018-05-27T08:11:19.711Z,23.8
2018-05-27T08:12:09.766Z,23.8
2018-05-27T08:12:58.986Z,23.8
2018-05-27T08:13:49.017Z,23.8
2018-05-27T08:14:39.744Z,23.8
2018-05-27T08:15:29.787Z,23.8
2018-05-27T08:16:19.831Z,23.8
2018-05-27T08:17:09.892Z,23.8
2018-05-27T08:17:59.639Z,23.8
2018-05-27T08:18:50.299Z,23.8
2018-05-27T08:19:39.857Z,23.8
2018-05-27T08:20:30.129Z,23.8
2018-05-27T08:21:19.945Z,23.8
2018-05-27T08:22:10.571Z,23.8
2018-05-27T08:22:59.505Z,23.8
2018-05-27T08:23:50.420Z,23.8
2018-05-27T08:24:40.473Z,23.8
2018-05-27T08:25:30.237Z,23.8
2018-05-27T08:26:20.131Z,23.8
2018-05-27T08:27:10.702Z,23.8
2018-05-27T08:28:00.518Z,23.8
2018-05-27T08:28:50.801Z,23.8
2018-05-27T08:29:41.141Z,23.8
2018-05-27T08:30:30.973Z,23.8
2018-05-27T08:31:20.777Z,23.8
2018-05-27T08:32:10.489Z,23.8
2018-05-27T08:33:01.133Z,23.8
2018-05-27T08:33:50.345Z,23.9
2018-05-27T08:34:41.296Z,23.8
2018-05-27T08:35:31.602Z,23.9
2018-05-27T08:36:21.667Z,23.8
2018-05-27T08:37:11.170Z,23.9
2018-05-27T08:38:01.258Z,23.9
2018-05-27T08:38:50.463Z,23.9
2018-05-27T08:39:41.634Z,23.9
2018-05-27T08:40:31.985Z,23.9
2018-05-27T08:41:21.756Z,23.9
2018-05-27T08:42:11.873Z,23.9
2018-05-27T08:43:01.965Z,23.9
2018-05-27T08:43:51.692Z,23.9
2018-05-27T08:44:42.424Z,23.9
2018-05-27T08:45:34.069Z,23.9
2018-05-27T08:46:23.838Z,23.9
2018-05-27T08:47:14.538Z,23.9
2018-05-27T08:48:04.312Z,23.9
2018-05-27T08:48:53.631Z,23.9
2018-05-27T08:49:44.117Z,23.9
2018-05-27T08:50:34.438Z,23.9
2018-05-27T08:51:24.539Z,23.9
2018-05-27T08:52:14.297Z,23.9
2018-05-27T08:53:04.343Z,23.9
2018-05-27T08:53:54.714Z,23.9
2018-05-27T08:54:44.210Z,23.9
2018-05-27T08:55:34.921Z,23.9
2018-05-27T08:56:25.218Z,23.9
2018-05-27T08:57:14.597Z,23.9
2018-05-27T08:58:05.063Z,23.9
2018-05-27T08:58:54.806Z,23.9
2018-05-27T08:59:44.752Z,23.9
2018-05-27T09:00:34.709Z,24
2018-05-27T09:01:26.097Z,23.9
2018-05-27T09:02:15.064Z,24
2018-05-27T09:03:05.436Z,24
2018-05-27T09:03:55.027Z,24
2018-05-27T09:04:44.128Z,24
2018-05-27T09:05:35.942Z,24
2018-05-27T09:06:25.447Z,24
2018-05-27T09:07:15.453Z,24
2018-05-27T09:08:05.254Z,24.1
2018-05-27T09:08:55.626Z,24.1
2018-05-27T09:09:45.745Z,24.1
2018-05-27T09:10:36.288Z,24
2018-05-27T09:11:26.368Z,24.1
2018-05-27T09:12:15.365Z,24.1
2018-05-27T09:13:05.951Z,24.1
2018-05-27T09:13:55.737Z,24.1
2018-05-27T09:14:46.358Z,24.1
2018-05-27T09:15:36.466Z,24.1
2018-05-27T09:16:25.645Z,24.1
2018-05-27T09:17:16.578Z,24.1
2018-05-27T09:18:06.345Z,24.1
2018-05-27T09:18:56.157Z,24.1
2018-05-27T09:19:46.476Z,24.1
2018-05-27T09:20:36.562Z,24.1
2018-05-27T09:21:26.559Z,24.1
2018-05-27T09:22:16.372Z,24.1
2018-05-27T09:23:06.962Z,24.1
2018-05-27T09:23:57.090Z,24.1
2018-05-27T09:24:47.295Z,24.1
2018-05-27T09:25:36.664Z,24.1
2018-05-27T09:26:27.270Z,24.1
2018-05-27T09:27:17.322Z,24.2
2018-05-27T09:28:07.215Z,24.2
2018-05-27T09:28:56.094Z,24.2
2018-05-27T09:29:47.528Z,24.2
2018-05-27T09:30:36.164Z,24.2
2018-05-27T09:31:27.694Z,24.2
2018-05-27T09:32:17.452Z,24.2
2018-05-27T09:33:07.799Z,24.2
2018-05-27T09:33:57.605Z,24.2
2018-05-27T09:34:46.842Z,24.2
2018-05-27T09:35:37.409Z,24.1
2018-05-27T09:36:28.078Z,24.2
2018-05-27T09:37:18.129Z,24.2
2018-05-27T09:38:07.620Z,24.2
2018-05-27T09:38:58.234Z,24.2
2018-05-27T09:39:48.031Z,24.1
2018-05-27T09:40:38.080Z,24.1
2018-05-27T09:41:28.767Z,24.1
2018-05-27T09:42:18.551Z,24.2
2018-05-27T09:43:08.572Z,24.2
2018-05-27T09:43:58.628Z,24.2
2018-05-27T09:44:48.701Z,24.2
2018-05-27T09:45:39.144Z,24.2
2018-05-27T09:46:28.858Z,24.2
2018-05-27T09:47:18.137Z,24.2
2018-05-27T09:48:08.499Z,24.2
2018-05-27T09:48:58.462Z,24.2
2018-05-27T09:49:49.082Z,24.2
2018-05-27T09:50:38.739Z,24.2
2018-05-27T09:51:29.432Z,24.2
2018-05-27T09:52:18.978Z,24.2
2018-05-27T09:53:09.347Z,24.2
2018-05-27T09:53:58.838Z,24.2
2018-05-27T09:54:49.489Z,24.3
2018-05-27T09:55:39.233Z,24.3
2018-05-27T09:56:29.026Z,24.3
2018-05-27T09:57:19.403Z,24.3
2018-05-27T09:58:09.115Z,24.3
2018-05-27T09:59:00.074Z,24.3
2018-05-27T09:59:49.595Z,24.3
2018-05-27T10:00:39.385Z,24.3
2018-05-27T10:01:29.722Z,24.3
2018-05-27T10:02:19.762Z,24.3
2018-05-27T10:03:09.025Z,24.3
2018-05-27T10:04:00.205Z,24.3
2018-05-27T10:04:49.967Z,24.3
2018-05-27T10:05:40.349Z,24.3
2018-05-27T10:06:29.874Z,24.3
2018-05-27T10:07:20.189Z,24.3
2018-05-27T10:08:10.547Z,24.3
2018-05-27T10:09:00.008Z,24.3
2018-05-27T10:09:50.903Z,24.3
2018-05-27T10:10:40.972Z,24.3
2018-05-27T10:11:30.523Z,24.3
2018-05-27T10:12:19.999Z,24.3
2018-05-27T10:13:10.614Z,24.3
2018-05-27T10:14:00.726Z,24.3
2018-05-27T10:14:50.437Z,24.3
2018-05-27T10:15:41.386Z,24.3
2018-05-27T10:16:30.910Z,24.3
2018-05-27T10:17:21.019Z,24.3
2018-05-27T10:18:11.637Z,24.3
2018-05-27T10:19:01.529Z,24.3
2018-05-27T10:19:51.721Z,24.3
2018-05-27T10:20:41.771Z,24.3
2018-05-27T10:21:31.894Z,24.3
2018-05-27T10:22:21.906Z,24.3
2018-05-27T10:23:11.118Z,24.3
2018-05-27T10:24:01.503Z,24.3
2018-05-27T10:24:51.556Z,24.3
2018-05-27T10:25:41.899Z,24.3
2018-05-27T10:26:31.105Z,24.3
2018-05-27T10:27:22.346Z,24.3
2018-05-27T10:28:11.540Z,24.3
2018-05-27T10:29:02.459Z,24.3
2018-05-27T10:29:52.148Z,24.3
2018-05-27T10:30:42.568Z,24.3
2018-05-27T10:31:31.751Z,24.3
2018-05-27T10:32:22.718Z,24.3
2018-05-27T10:33:12.444Z,24.3
2018-05-27T10:34:02.542Z,24.3
2018-05-27T10:34:51.777Z,24.3
2018-05-27T10:35:42.686Z,24.3
2018-05-27T10:36:33.015Z,24.3
2018-05-27T10:37:23.072Z,24.3
2018-05-27T10:38:12.002Z,24.3
2018-05-27T10:39:03.160Z,24.3
2018-05-27T10:39:53.000Z,24.3
2018-05-27T10:40:42.761Z,24.3
2018-05-27T10:41:32.832Z,24.3
2018-05-27T10:42:22.601Z,24.3
2018-05-27T10:43:13.049Z,24.3
2018-05-27T10:44:03.293Z,24.3
2018-05-27T10:44:52.619Z,24.3
2018-05-27T10:45:42.972Z,24.3
2018-05-27T10:46:33.508Z,24.3
2018-05-27T10:47:21.621Z,24.3
2018-05-27T10:48:11.977Z,24.3
2018-05-27T10:49:02.053Z,24.3
2018-05-27T10:49:52.127Z,24.3
2018-05-27T10:50:41.868Z,24.3
2018-05-27T10:51:33.701Z,24.3
2018-05-27T10:52:23.934Z,24.4
2018-05-27T10:53:14.037Z,24.4
2018-05-27T10:54:04.366Z,24.4
2018-05-27T10:54:54.137Z,24.4
2018-05-27T10:55:43.662Z,24.4
2018-05-27T10:56:34.551Z,24.4
2018-05-27T10:57:24.652Z,24.4
2018-05-27T10:58:14.117Z,24.4
2018-05-27T10:59:04.472Z,24.4
2018-05-27T10:59:55.119Z,24.4
2018-05-27T11:00:43.801Z,24.4
2018-05-27T11:01:34.906Z,24.4
2018-05-27T11:02:25.046Z,24.4
2018-05-27T11:03:14.560Z,24.4
2018-05-27T11:04:04.556Z,24.4
2018-05-27T11:04:54.656Z,24.4
2018-05-27T11:05:45.963Z,24.4
2018-05-27T11:06:35.374Z,24.4
2018-05-27T11:07:24.841Z,24.4